Startpagina
METAR-TAF:

METAR-TAF

Vliegvelden :

Internationale Luchthaven Antwerpen

Antwerpen, België

breedte: 51-12N, lengte: 004-28E, hoogte: 12 m

Actueel weer

Dit bericht is 26 minuten geleden gemaakt, om 18:20 UTC
Wind 7 kt uit het noordnoordoosten
Temperatuur 16°C
Vochtigheid 82%
Druk 1012 hPa
Zicht 10 km of meer
Gebroken wolken op 1300 ft
Gebroken wolken op 2000 ft

METAR: EBAW 211820Z 03007KT 9999 BKN013 BKN020 16/13 Q1012 NOSIG

Tijdstip: 20:46 (18:46 UTC)

Verwachting

Dit bericht is 1 uur en het 42 minuten geleden gemaakt, om 17:04 UTC
Verwachting geldig van 21 om 18 UTC tot 22 om 03 UTC
Wind 9 kt uit het noordnoordoosten
Zicht 10 km of meer
Verspreide wolken op 1500 ft
Gebroken wolken op 2500 ft
Kans 30%
van 21 om 21 UTC tot 22 om 03 UTC
Gebroken wolken op 900 ft

TAF: EBAW 211704Z 2118/2203 03009KT 9999 SCT015 BKN025 PROB30 2121/2203 BKN009

Waarnemingen en weersverwachtingen van meer dan 4000 vliegvelden (METAR en TAF).

De beschikbare stations zijn de gele en rode punten op de kaart.

Ga met uw muis naar het station om de naam te zien.

Klik dan om waarnemingen en weersverwachtingen te zien.

kaart wijzigen: klik op de groene knoppen met een zwart kruis om in te zoomen, op de groene knop met een streepje om uit te zoomen of op de groene pijlen voor aangrenzende kaarten.


METAR-TAF: